FVBO weather

Bosbury Airport
Bosbury, Mashonaland West Province, Zimbabwe

Public forecast

Using degrees Celsius for public forecast. Weather courtesy of forecast.io.

Closest aviation weather report (METAR) to Bosbury Airport

Closest report is Robert Gabriel Mugabe International Airport, 57.4 nm (106.3 km) ENE. Retrieved 2019/10/19 09:00 UTC (2 hours ago):

FVRG 190900Z VRB04KT CAVOK 28/03 Q1022 NOSIG

Closest aviation forecast (TAF) to Bosbury Airport

Forecast is more than 6 hours old.

Closest forecast is Robert Gabriel Mugabe International Airport, 57.4 nm (106.3 km) ENE. Retrieved 2019-10-19 00:00 UTC (11 hours ago):

TAF FBSK 182100Z 1900/2006 23010KT CAVOK TAF FVRG 182200Z 1900/2006 VRB03KT CAVOK